sensor_id;sensor_type;location;lat;lon;timestamp;P1;durP1;ratioP1;P2;durP2;ratioP2
31786;SDS011;18356;52.380;9.820;2022-11-15T00:00:43;37.07;;;18.87;;
31786;SDS011;18356;52.380;9.820;2022-11-15T00:03:09;37.83;;;19.17;;
31786;SDS011;18356;52.380;9.820;2022-11-15T00:05:35;35.00;;;18.27;;
31786;SDS011;18356;52.380;9.820;2022-11-15T00:08:01;31.30;;;17.57;;
31786;SDS011;18356;52.380;9.820;2022-11-15T00:10:27;35.17;;;18.73;;
31786;SDS011;18356;52.380;9.820;2022-11-15T00:12:53;39.73;;;19.90;;
31786;SDS011;18356;52.380;9.820;2022-11-15T00:15:19;34.90;;;19.03;;
31786;SDS011;18356;52.380;9.820;2022-11-15T00:17:48;36.07;;;20.30;;
31786;SDS011;18356;52.380;9.820;2022-11-15T00:20:14;35.80;;;18.73;;
31786;SDS011;18356;52.380;9.820;2022-11-15T00:22:40;35.27;;;18.73;;
31786;SDS011;18356;52.380;9.820;2022-11-15T00:25:06;31.90;;;18.13;;
31786;SDS011;18356;52.380;9.820;2022-11-15T00:27:32;37.50;;;18.93;;
31786;SDS011;18356;52.380;9.820;2022-11-15T00:29:58;36.37;;;19.00;;
31786;SDS011;18356;52.380;9.820;2022-11-15T00:32:24;41.53;;;19.30;;
31786;SDS011;18356;52.380;9.820;2022-11-15T00:34:50;40.37;;;18.70;;
31786;SDS011;18356;52.380;9.820;2022-11-15T00:37:16;33.97;;;18.63;;
31786;SDS011;18356;52.380;9.820;2022-11-15T00:39:42;33.03;;;18.27;;
31786;SDS011;18356;52.380;9.820;2022-11-15T00:42:08;30.83;;;17.33;;
31786;SDS011;18356;52.380;9.820;2022-11-15T00:44:34;36.73;;;19.30;;
31786;SDS011;18356;52.380;9.820;2022-11-15T00:47:00;34.57;;;17.97;;
31786;SDS011;18356;52.380;9.820;2022-11-15T00:49:26;30.60;;;17.67;;
31786;SDS011;18356;52.380;9.820;2022-11-15T00:51:52;32.80;;;17.07;;
31786;SDS011;18356;52.380;9.820;2022-11-15T00:54:18;33.63;;;16.50;;
31786;SDS011;18356;52.380;9.820;2022-11-15T00:56:44;32.03;;;17.17;;
31786;SDS011;18356;52.380;9.820;2022-11-15T00:59:10;32.27;;;18.07;;
31786;SDS011;18356;52.380;9.820;2022-11-15T01:01:36;31.53;;;17.97;;
31786;SDS011;18356;52.380;9.820;2022-11-15T01:04:02;33.47;;;17.17;;
31786;SDS011;18356;52.380;9.820;2022-11-15T01:06:28;30.07;;;17.03;;
31786;SDS011;18356;52.380;9.820;2022-11-15T01:08:54;32.00;;;18.17;;
31786;SDS011;18356;52.380;9.820;2022-11-15T01:11:20;28.00;;;16.20;;
31786;SDS011;18356;52.380;9.820;2022-11-15T01:13:46;31.73;;;17.90;;
31786;SDS011;18356;52.380;9.820;2022-11-15T01:16:13;34.37;;;18.53;;
31786;SDS011;18356;52.380;9.820;2022-11-15T01:18:41;33.10;;;18.40;;
31786;SDS011;18356;52.380;9.820;2022-11-15T01:21:11;37.80;;;17.63;;
31786;SDS011;18356;52.380;9.820;2022-11-15T01:23:37;31.13;;;18.07;;
31786;SDS011;18356;52.380;9.820;2022-11-15T01:26:04;30.37;;;17.23;;
31786;SDS011;18356;52.380;9.820;2022-11-15T01:28:31;31.90;;;17.67;;
31786;SDS011;18356;52.380;9.820;2022-11-15T01:30:58;33.67;;;17.60;;
31786;SDS011;18356;52.380;9.820;2022-11-15T01:33:24;29.63;;;17.10;;
31786;SDS011;18356;52.380;9.820;2022-11-15T01:35:50;29.83;;;16.83;;
31786;SDS011;18356;52.380;9.820;2022-11-15T01:38:16;34.63;;;18.27;;
31786;SDS011;18356;52.380;9.820;2022-11-15T01:40:42;30.93;;;17.40;;
31786;SDS011;18356;52.380;9.820;2022-11-15T01:43:21;33.40;;;17.60;;
31786;SDS011;18356;52.380;9.820;2022-11-15T01:45:49;33.23;;;17.00;;
31786;SDS011;18356;52.380;9.820;2022-11-15T01:48:16;32.07;;;17.20;;
31786;SDS011;18356;52.380;9.820;2022-11-15T01:50:42;32.80;;;16.47;;
31786;SDS011;18356;52.380;9.820;2022-11-15T01:53:08;29.23;;;16.47;;
31786;SDS011;18356;52.380;9.820;2022-11-15T01:55:35;27.53;;;15.07;;
31786;SDS011;18356;52.380;9.820;2022-11-15T01:58:02;27.50;;;15.37;;
31786;SDS011;18356;52.380;9.820;2022-11-15T02:00:29;28.73;;;15.83;;
31786;SDS011;18356;52.380;9.820;2022-11-15T02:02:55;27.27;;;15.03;;
31786;SDS011;18356;52.380;9.820;2022-11-15T02:05:21;27.07;;;15.67;;
31786;SDS011;18356;52.380;9.820;2022-11-15T02:07:47;27.70;;;15.40;;
31786;SDS011;18356;52.380;9.820;2022-11-15T02:10:17;27.80;;;16.03;;
31786;SDS011;18356;52.380;9.820;2022-11-15T02:12:43;26.97;;;15.40;;
31786;SDS011;18356;52.380;9.820;2022-11-15T02:15:09;29.20;;;15.93;;
31786;SDS011;18356;52.380;9.820;2022-11-15T02:26:07;30.50;;;16.70;;
31786;SDS011;18356;52.380;9.820;2022-11-15T02:28:42;30.13;;;15.90;;
31786;SDS011;18356;52.380;9.820;2022-11-15T02:33:41;31.50;;;16.83;;
31786;SDS011;18356;52.380;9.820;2022-11-15T02:36:14;29.20;;;16.07;;
31786;SDS011;18356;52.380;9.820;2022-11-15T02:38:50;24.10;;;14.83;;
31786;SDS011;18356;52.380;9.820;2022-11-15T02:41:27;28.83;;;14.97;;
31786;SDS011;18356;52.380;9.820;2022-11-15T02:46:54;29.43;;;17.43;;
31786;SDS011;18356;52.380;9.820;2022-11-15T02:49:38;33.10;;;16.83;;
31786;SDS011;18356;52.380;9.820;2022-11-15T02:52:05;26.77;;;15.33;;
31786;SDS011;18356;52.380;9.820;2022-11-15T02:54:32;35.53;;;16.13;;
31786;SDS011;18356;52.380;9.820;2022-11-15T02:57:10;30.37;;;15.87;;
31786;SDS011;18356;52.380;9.820;2022-11-15T03:07:48;25.27;;;14.93;;
31786;SDS011;18356;52.380;9.820;2022-11-15T03:09:52;28.93;;;15.07;;
31786;SDS011;18356;52.380;9.820;2022-11-15T03:14:51;32.77;;;15.97;;
31786;SDS011;18356;52.380;9.820;2022-11-15T03:17:28;31.50;;;16.53;;
31786;SDS011;18356;52.380;9.820;2022-11-15T03:19:58;31.83;;;15.03;;
31786;SDS011;18356;52.380;9.820;2022-11-15T03:22:26;31.80;;;15.60;;
31786;SDS011;18356;52.380;9.820;2022-11-15T03:24:56;29.43;;;15.07;;
31786;SDS011;18356;52.380;9.820;2022-11-15T03:27:24;27.57;;;15.10;;
31786;SDS011;18356;52.380;9.820;2022-11-15T03:29:52;33.90;;;15.93;;
31786;SDS011;18356;52.380;9.820;2022-11-15T03:32:23;28.97;;;15.80;;
31786;SDS011;18356;52.380;9.820;2022-11-15T03:34:51;31.40;;;16.33;;
31786;SDS011;18356;52.380;9.820;2022-11-15T03:37:17;31.83;;;17.07;;
31786;SDS011;18356;52.380;9.820;2022-11-15T03:39:46;30.07;;;15.27;;
31786;SDS011;18356;52.380;9.820;2022-11-15T03:44:51;30.97;;;16.07;;
31786;SDS011;18356;52.380;9.820;2022-11-15T03:47:21;28.23;;;16.03;;
31786;SDS011;18356;52.380;9.820;2022-11-15T03:49:50;31.27;;;15.73;;
31786;SDS011;18356;52.380;9.820;2022-11-15T03:52:18;37.23;;;17.27;;
31786;SDS011;18356;52.380;9.820;2022-11-15T03:54:49;26.00;;;15.17;;
31786;SDS011;18356;52.380;9.820;2022-11-15T03:57:15;36.33;;;17.00;;
31786;SDS011;18356;52.380;9.820;2022-11-15T03:59:41;26.40;;;14.03;;
31786;SDS011;18356;52.380;9.820;2022-11-15T04:02:07;27.97;;;14.53;;
31786;SDS011;18356;52.380;9.820;2022-11-15T04:04:33;27.27;;;14.60;;
31786;SDS011;18356;52.380;9.820;2022-11-15T04:06:59;26.97;;;14.30;;
31786;SDS011;18356;52.380;9.820;2022-11-15T04:09:25;28.97;;;15.50;;
31786;SDS011;18356;52.380;9.820;2022-11-15T04:11:51;22.13;;;12.93;;
31786;SDS011;18356;52.380;9.820;2022-11-15T04:14:17;26.43;;;14.57;;
31786;SDS011;18356;52.380;9.820;2022-11-15T04:16:43;24.63;;;14.23;;
31786;SDS011;18356;52.380;9.820;2022-11-15T04:19:09;28.23;;;13.90;;
31786;SDS011;18356;52.380;9.820;2022-11-15T04:21:54;24.37;;;13.90;;
31786;SDS011;18356;52.380;9.820;2022-11-15T04:24:39;30.20;;;14.73;;
31786;SDS011;18356;52.380;9.820;2022-11-15T04:27:05;25.00;;;13.87;;
31786;SDS011;18356;52.380;9.820;2022-11-15T04:29:31;29.60;;;14.40;;
31786;SDS011;18356;52.380;9.820;2022-11-15T04:32:00;29.23;;;15.23;;
31786;SDS011;18356;52.380;9.820;2022-11-15T04:34:26;28.10;;;14.73;;
31786;SDS011;18356;52.380;9.820;2022-11-15T04:36:52;32.50;;;14.47;;
31786;SDS011;18356;52.380;9.820;2022-11-15T04:39:37;30.93;;;14.07;;
31786;SDS011;18356;52.380;9.820;2022-11-15T04:42:03;28.43;;;14.53;;
31786;SDS011;18356;52.380;9.820;2022-11-15T04:44:29;28.33;;;14.63;;
31786;SDS011;18356;52.380;9.820;2022-11-15T04:46:56;31.07;;;15.20;;
31786;SDS011;18356;52.380;9.820;2022-11-15T04:49:22;30.60;;;16.23;;
31786;SDS011;18356;52.380;9.820;2022-11-15T04:51:48;28.97;;;15.07;;
31786;SDS011;18356;52.380;9.820;2022-11-15T04:54:14;25.77;;;14.80;;
31786;SDS011;18356;52.380;9.820;2022-11-15T04:56:40;34.73;;;14.73;;
31786;SDS011;18356;52.380;9.820;2022-11-15T04:59:06;29.37;;;15.33;;
31786;SDS011;18356;52.380;9.820;2022-11-15T05:01:32;30.87;;;15.40;;
31786;SDS011;18356;52.380;9.820;2022-11-15T05:03:58;29.83;;;16.00;;
31786;SDS011;18356;52.380;9.820;2022-11-15T05:06:42;30.27;;;15.93;;
31786;SDS011;18356;52.380;9.820;2022-11-15T05:09:08;34.67;;;17.10;;
31786;SDS011;18356;52.380;9.820;2022-11-15T05:11:35;29.93;;;16.87;;
31786;SDS011;18356;52.380;9.820;2022-11-15T05:14:01;34.00;;;16.67;;
31786;SDS011;18356;52.380;9.820;2022-11-15T05:16:27;30.80;;;15.60;;
31786;SDS011;18356;52.380;9.820;2022-11-15T05:18:53;34.13;;;16.30;;
31786;SDS011;18356;52.380;9.820;2022-11-15T05:21:19;28.80;;;16.17;;
31786;SDS011;18356;52.380;9.820;2022-11-15T05:23:46;30.33;;;16.40;;
31786;SDS011;18356;52.380;9.820;2022-11-15T05:26:12;36.63;;;15.40;;
31786;SDS011;18356;52.380;9.820;2022-11-15T05:28:38;23.40;;;14.17;;
31786;SDS011;18356;52.380;9.820;2022-11-15T05:31:05;24.33;;;13.17;;
31786;SDS011;18356;52.380;9.820;2022-11-15T05:33:32;30.30;;;13.60;;
31786;SDS011;18356;52.380;9.820;2022-11-15T05:36:07;24.63;;;13.40;;
31786;SDS011;18356;52.380;9.820;2022-11-15T05:38:33;27.17;;;13.23;;
31786;SDS011;18356;52.380;9.820;2022-11-15T05:40:59;25.97;;;11.67;;
31786;SDS011;18356;52.380;9.820;2022-11-15T05:43:26;26.87;;;10.63;;
31786;SDS011;18356;52.380;9.820;2022-11-15T05:45:52;22.17;;;11.27;;
31786;SDS011;18356;52.380;9.820;2022-11-15T05:48:18;21.07;;;11.43;;
31786;SDS011;18356;52.380;9.820;2022-11-15T05:50:45;19.17;;;11.07;;
31786;SDS011;18356;52.380;9.820;2022-11-15T05:53:13;16.80;;;11.30;;
31786;SDS011;18356;52.380;9.820;2022-11-15T05:55:40;18.53;;;9.97;;
31786;SDS011;18356;52.380;9.820;2022-11-15T05:58:06;17.17;;;9.93;;
31786;SDS011;18356;52.380;9.820;2022-11-15T06:00:32;16.23;;;9.80;;
31786;SDS011;18356;52.380;9.820;2022-11-15T06:02:59;16.03;;;10.37;;
31786;SDS011;18356;52.380;9.820;2022-11-15T06:05:25;14.53;;;9.30;;
31786;SDS011;18356;52.380;9.820;2022-11-15T06:07:51;14.33;;;8.30;;
31786;SDS011;18356;52.380;9.820;2022-11-15T06:10:17;17.97;;;8.80;;
31786;SDS011;18356;52.380;9.820;2022-11-15T06:12:43;14.33;;;8.67;;
31786;SDS011;18356;52.380;9.820;2022-11-15T06:15:09;13.03;;;8.50;;
31786;SDS011;18356;52.380;9.820;2022-11-15T06:17:35;14.97;;;8.30;;
31786;SDS011;18356;52.380;9.820;2022-11-15T06:20:01;15.00;;;7.90;;
31786;SDS011;18356;52.380;9.820;2022-11-15T06:22:27;16.00;;;7.70;;
31786;SDS011;18356;52.380;9.820;2022-11-15T06:24:53;11.57;;;7.80;;
31786;SDS011;18356;52.380;9.820;2022-11-15T06:27:19;15.30;;;8.27;;
31786;SDS011;18356;52.380;9.820;2022-11-15T06:29:45;13.73;;;8.00;;
31786;SDS011;18356;52.380;9.820;2022-11-15T06:32:11;15.07;;;7.80;;
31786;SDS011;18356;52.380;9.820;2022-11-15T06:34:37;12.23;;;7.13;;
31786;SDS011;18356;52.380;9.820;2022-11-15T06:37:03;24.00;;;7.40;;
31786;SDS011;18356;52.380;9.820;2022-11-15T06:39:29;17.47;;;7.90;;
31786;SDS011;18356;52.380;9.820;2022-11-15T06:41:55;22.23;;;8.83;;
31786;SDS011;18356;52.380;9.820;2022-11-15T06:44:21;21.50;;;7.67;;
31786;SDS011;18356;52.380;9.820;2022-11-15T06:46:47;16.80;;;8.30;;
31786;SDS011;18356;52.380;9.820;2022-11-15T06:49:13;16.97;;;8.07;;
31786;SDS011;18356;52.380;9.820;2022-11-15T06:51:39;13.03;;;8.67;;
31786;SDS011;18356;52.380;9.820;2022-11-15T06:54:05;16.00;;;7.70;;
31786;SDS011;18356;52.380;9.820;2022-11-15T06:56:31;19.17;;;8.37;;
31786;SDS011;18356;52.380;9.820;2022-11-15T06:58:59;15.90;;;8.40;;
31786;SDS011;18356;52.380;9.820;2022-11-15T07:01:25;14.10;;;8.07;;
31786;SDS011;18356;52.380;9.820;2022-11-15T07:03:51;16.07;;;7.43;;
31786;SDS011;18356;52.380;9.820;2022-11-15T07:06:17;16.20;;;7.97;;
31786;SDS011;18356;52.380;9.820;2022-11-15T07:08:43;13.13;;;6.93;;
31786;SDS011;18356;52.380;9.820;2022-11-15T07:11:09;13.23;;;7.37;;
31786;SDS011;18356;52.380;9.820;2022-11-15T07:13:35;11.63;;;7.20;;
31786;SDS011;18356;52.380;9.820;2022-11-15T07:16:05;10.27;;;6.53;;
31786;SDS011;18356;52.380;9.820;2022-11-15T07:18:33;11.90;;;7.03;;
31786;SDS011;18356;52.380;9.820;2022-11-15T07:21:06;13.63;;;7.10;;
31786;SDS011;18356;52.380;9.820;2022-11-15T07:23:33;10.50;;;6.50;;
31786;SDS011;18356;52.380;9.820;2022-11-15T07:25:59;13.00;;;6.60;;
31786;SDS011;18356;52.380;9.820;2022-11-15T07:28:25;13.70;;;6.63;;
31786;SDS011;18356;52.380;9.820;2022-11-15T07:30:52;13.37;;;6.63;;
31786;SDS011;18356;52.380;9.820;2022-11-15T07:33:18;13.27;;;6.80;;
31786;SDS011;18356;52.380;9.820;2022-11-15T07:35:44;11.53;;;7.23;;
31786;SDS011;18356;52.380;9.820;2022-11-15T07:38:13;10.37;;;6.10;;
31786;SDS011;18356;52.380;9.820;2022-11-15T07:40:46;9.03;;;5.50;;
31786;SDS011;18356;52.380;9.820;2022-11-15T07:43:12;9.70;;;6.20;;
31786;SDS011;18356;52.380;9.820;2022-11-15T07:45:42;10.27;;;6.13;;
31786;SDS011;18356;52.380;9.820;2022-11-15T07:48:08;10.77;;;6.20;;
31786;SDS011;18356;52.380;9.820;2022-11-15T07:50:35;12.43;;;6.33;;
31786;SDS011;18356;52.380;9.820;2022-11-15T07:53:05;12.77;;;7.00;;
31786;SDS011;18356;52.380;9.820;2022-11-15T07:55:32;14.63;;;6.77;;
31786;SDS011;18356;52.380;9.820;2022-11-15T07:58:04;11.10;;;6.03;;
31786;SDS011;18356;52.380;9.820;2022-11-15T08:00:31;9.90;;;6.20;;
31786;SDS011;18356;52.380;9.820;2022-11-15T08:05:33;10.17;;;5.50;;
31786;SDS011;18356;52.380;9.820;2022-11-15T08:08:00;12.87;;;6.37;;
31786;SDS011;18356;52.380;9.820;2022-11-15T08:10:27;8.80;;;5.63;;
31786;SDS011;18356;52.380;9.820;2022-11-15T08:13:04;10.43;;;5.63;;
31786;SDS011;18356;52.380;9.820;2022-11-15T08:15:31;10.70;;;6.30;;
31786;SDS011;18356;52.380;9.820;2022-11-15T08:17:58;11.97;;;6.27;;
31786;SDS011;18356;52.380;9.820;2022-11-15T08:20:25;10.90;;;6.20;;
31786;SDS011;18356;52.380;9.820;2022-11-15T08:22:51;9.27;;;6.00;;
31786;SDS011;18356;52.380;9.820;2022-11-15T08:25:17;10.70;;;6.30;;
31786;SDS011;18356;52.380;9.820;2022-11-15T08:27:43;9.37;;;5.87;;
31786;SDS011;18356;52.380;9.820;2022-11-15T08:30:10;13.73;;;5.70;;
31786;SDS011;18356;52.380;9.820;2022-11-15T08:32:36;11.67;;;5.63;;
31786;SDS011;18356;52.380;9.820;2022-11-15T08:35:02;9.00;;;5.43;;
31786;SDS011;18356;52.380;9.820;2022-11-15T08:37:28;8.53;;;5.40;;
31786;SDS011;18356;52.380;9.820;2022-11-15T08:39:54;12.73;;;5.33;;
31786;SDS011;18356;52.380;9.820;2022-11-15T08:42:20;11.57;;;5.10;;
31786;SDS011;18356;52.380;9.820;2022-11-15T08:44:46;10.25;;;5.20;;
31786;SDS011;18356;52.380;9.820;2022-11-15T08:47:12;9.30;;;5.10;;
31786;SDS011;18356;52.380;9.820;2022-11-15T08:49:41;8.53;;;4.43;;
31786;SDS011;18356;52.380;9.820;2022-11-15T08:52:07;8.70;;;5.20;;
31786;SDS011;18356;52.380;9.820;2022-11-15T08:54:33;9.80;;;5.00;;
31786;SDS011;18356;52.380;9.820;2022-11-15T08:56:59;9.73;;;5.10;;
31786;SDS011;18356;52.380;9.820;2022-11-15T08:59:25;9.83;;;5.03;;
31786;SDS011;18356;52.380;9.820;2022-11-15T09:01:51;9.53;;;5.23;;
31786;SDS011;18356;52.380;9.820;2022-11-15T09:04:17;9.97;;;5.20;;
31786;SDS011;18356;52.380;9.820;2022-11-15T09:06:43;7.83;;;4.47;;
31786;SDS011;18356;52.380;9.820;2022-11-15T09:09:09;8.27;;;4.60;;
31786;SDS011;18356;52.380;9.820;2022-11-15T09:11:35;7.57;;;5.13;;
31786;SDS011;18356;52.380;9.820;2022-11-15T09:14:01;8.07;;;4.80;;
31786;SDS011;18356;52.380;9.820;2022-11-15T09:16:27;9.03;;;4.83;;
31786;SDS011;18356;52.380;9.820;2022-11-15T09:18:53;7.43;;;4.37;;
31786;SDS011;18356;52.380;9.820;2022-11-15T09:21:19;7.50;;;4.10;;
31786;SDS011;18356;52.380;9.820;2022-11-15T09:23:46;7.67;;;4.83;;
31786;SDS011;18356;52.380;9.820;2022-11-15T09:26:12;10.30;;;4.60;;
31786;SDS011;18356;52.380;9.820;2022-11-15T09:28:38;8.20;;;4.70;;
31786;SDS011;18356;52.380;9.820;2022-11-15T09:31:06;7.23;;;4.50;;
31786;SDS011;18356;52.380;9.820;2022-11-15T09:33:33;8.23;;;4.43;;
31786;SDS011;18356;52.380;9.820;2022-11-15T09:36:08;10.27;;;4.68;;
31786;SDS011;18356;52.380;9.820;2022-11-15T09:38:34;10.03;;;6.23;;
31786;SDS011;18356;52.380;9.820;2022-11-15T09:48:56;10.73;;;4.80;;
31786;SDS011;18356;52.380;9.820;2022-11-15T09:51:32;8.13;;;4.37;;
31786;SDS011;18356;52.380;9.820;2022-11-15T09:56:37;7.68;;;4.60;;
31786;SDS011;18356;52.380;9.820;2022-11-15T10:01:43;10.10;;;4.40;;
31786;SDS011;18356;52.380;9.820;2022-11-15T10:04:11;7.70;;;4.40;;
31786;SDS011;18356;52.380;9.820;2022-11-15T10:06:40;8.13;;;4.13;;
31786;SDS011;18356;52.380;9.820;2022-11-15T10:09:13;8.05;;;4.07;;
31786;SDS011;18356;52.380;9.820;2022-11-15T10:11:39;9.50;;;4.25;;
31786;SDS011;18356;52.380;9.820;2022-11-15T10:14:10;8.77;;;4.23;;
31786;SDS011;18356;52.380;9.820;2022-11-15T10:24:24;6.15;;;3.55;;
31786;SDS011;18356;52.380;9.820;2022-11-15T10:26:53;5.97;;;3.67;;
31786;SDS011;18356;52.380;9.820;2022-11-15T10:29:20;9.20;;;3.63;;
31786;SDS011;18356;52.380;9.820;2022-11-15T10:31:46;8.45;;;3.88;;
31786;SDS011;18356;52.380;9.820;2022-11-15T10:34:13;7.65;;;3.53;;
31786;SDS011;18356;52.380;9.820;2022-11-15T10:36:43;8.57;;;3.97;;
31786;SDS011;18356;52.380;9.820;2022-11-15T10:39:11;9.02;;;3.47;;
31786;SDS011;18356;52.380;9.820;2022-11-15T10:41:38;8.43;;;5.55;;
31786;SDS011;18356;52.380;9.820;2022-11-15T10:46:45;6.28;;;3.58;;
31786;SDS011;18356;52.380;9.820;2022-11-15T10:51:49;7.63;;;3.20;;
31786;SDS011;18356;52.380;9.820;2022-11-15T10:54:28;8.52;;;3.55;;
31786;SDS011;18356;52.380;9.820;2022-11-15T10:56:56;8.23;;;3.40;;
31786;SDS011;18356;52.380;9.820;2022-11-15T10:59:26;9.25;;;4.30;;
31786;SDS011;18356;52.380;9.820;2022-11-15T11:01:54;12.07;;;4.93;;
31786;SDS011;18356;52.380;9.820;2022-11-15T11:04:20;9.73;;;3.38;;
31786;SDS011;18356;52.380;9.820;2022-11-15T11:09:30;6.75;;;3.35;;
31786;SDS011;18356;52.380;9.820;2022-11-15T11:11:57;5.75;;;3.53;;
31786;SDS011;18356;52.380;9.820;2022-11-15T11:14:28;8.90;;;3.40;;
31786;SDS011;18356;52.380;9.820;2022-11-15T11:17:17;11.52;;;3.50;;
31786;SDS011;18356;52.380;9.820;2022-11-15T11:30:09;7.63;;;3.30;;
31786;SDS011;18356;52.380;9.820;2022-11-15T11:37:44;5.75;;;3.28;;
31786;SDS011;18356;52.380;9.820;2022-11-15T11:40:24;8.98;;;3.40;;
31786;SDS011;18356;52.380;9.820;2022-11-15T11:50:34;7.47;;;3.15;;
31786;SDS011;18356;52.380;9.820;2022-11-15T11:55:44;6.00;;;3.10;;
31786;SDS011;18356;52.380;9.820;2022-11-15T11:58:19;6.07;;;2.95;;
31786;SDS011;18356;52.380;9.820;2022-11-15T12:00:49;6.32;;;3.30;;
31786;SDS011;18356;52.380;9.820;2022-11-15T12:05:44;6.93;;;3.38;;
31786;SDS011;18356;52.380;9.820;2022-11-15T12:10:39;9.23;;;3.42;;
31786;SDS011;18356;52.380;9.820;2022-11-15T12:13:16;8.85;;;3.42;;
31786;SDS011;18356;52.380;9.820;2022-11-15T12:15:47;8.43;;;3.50;;
31786;SDS011;18356;52.380;9.820;2022-11-15T12:18:16;5.70;;;3.15;;
31786;SDS011;18356;52.380;9.820;2022-11-15T12:20:49;7.93;;;2.90;;
31786;SDS011;18356;52.380;9.820;2022-11-15T12:23:19;5.82;;;2.90;;
31786;SDS011;18356;52.380;9.820;2022-11-15T12:25:53;7.60;;;3.13;;
31786;SDS011;18356;52.380;9.820;2022-11-15T12:30:49;7.38;;;3.60;;
31786;SDS011;18356;52.380;9.820;2022-11-15T12:36:05;11.18;;;3.75;;
31786;SDS011;18356;52.380;9.820;2022-11-15T12:41:17;8.60;;;3.47;;
31786;SDS011;18356;52.380;9.820;2022-11-15T12:43:44;12.02;;;3.92;;
31786;SDS011;18356;52.380;9.820;2022-11-15T12:46:19;12.23;;;4.38;;
31786;SDS011;18356;52.380;9.820;2022-11-15T12:48:49;8.75;;;3.42;;
31786;SDS011;18356;52.380;9.820;2022-11-15T12:51:16;8.90;;;3.70;;
31786;SDS011;18356;52.380;9.820;2022-11-15T12:53:42;11.18;;;3.38;;
31786;SDS011;18356;52.380;9.820;2022-11-15T13:01:51;9.73;;;3.42;;
31786;SDS011;18356;52.380;9.820;2022-11-15T13:06:46;5.70;;;2.85;;
31786;SDS011;18356;52.380;9.820;2022-11-15T13:11:57;8.23;;;3.20;;
31786;SDS011;18356;52.380;9.820;2022-11-15T13:19:42;7.43;;;3.28;;
31786;SDS011;18356;52.380;9.820;2022-11-15T13:22:09;10.20;;;4.03;;
31786;SDS011;18356;52.380;9.820;2022-11-15T13:24:54;10.65;;;3.45;;
31786;SDS011;18356;52.380;9.820;2022-11-15T13:27:20;8.38;;;3.28;;
31786;SDS011;18356;52.380;9.820;2022-11-15T13:29:46;10.60;;;3.70;;
31786;SDS011;18356;52.380;9.820;2022-11-15T13:32:13;7.32;;;3.53;;
31786;SDS011;18356;52.380;9.820;2022-11-15T13:34:42;10.45;;;4.00;;
31786;SDS011;18356;52.380;9.820;2022-11-15T13:39:46;7.38;;;3.10;;
31786;SDS011;18356;52.380;9.820;2022-11-15T13:42:16;5.63;;;3.20;;
31786;SDS011;18356;52.380;9.820;2022-11-15T13:44:59;9.45;;;3.67;;
31786;SDS011;18356;52.380;9.820;2022-11-15T13:47:26;5.20;;;3.33;;
31786;SDS011;18356;52.380;9.820;2022-11-15T13:49:52;8.57;;;4.10;;
31786;SDS011;18356;52.380;9.820;2022-11-15T13:52:18;7.65;;;3.65;;
31786;SDS011;18356;52.380;9.820;2022-11-15T13:57:19;10.15;;;3.92;;
31786;SDS011;18356;52.380;9.820;2022-11-15T13:59:48;10.65;;;3.67;;
31786;SDS011;18356;52.380;9.820;2022-11-15T14:02:15;12.40;;;3.55;;
31786;SDS011;18356;52.380;9.820;2022-11-15T14:04:53;8.50;;;4.10;;
31786;SDS011;18356;52.380;9.820;2022-11-15T14:07:20;9.32;;;3.40;;
31786;SDS011;18356;52.380;9.820;2022-11-15T14:09:47;5.93;;;3.20;;
31786;SDS011;18356;52.380;9.820;2022-11-15T14:14:51;11.65;;;3.17;;
31786;SDS011;18356;52.380;9.820;2022-11-15T14:17:21;5.35;;;3.30;;
31786;SDS011;18356;52.380;9.820;2022-11-15T14:19:58;8.88;;;3.72;;
31786;SDS011;18356;52.380;9.820;2022-11-15T14:22:24;7.97;;;3.00;;
31786;SDS011;18356;52.380;9.820;2022-11-15T14:25:07;8.82;;;3.40;;
31786;SDS011;18356;52.380;9.820;2022-11-15T14:27:39;6.70;;;3.35;;
31786;SDS011;18356;52.380;9.820;2022-11-15T14:30:06;6.30;;;3.03;;
31786;SDS011;18356;52.380;9.820;2022-11-15T14:32:45;6.28;;;3.10;;
31786;SDS011;18356;52.380;9.820;2022-11-15T14:35:14;6.47;;;3.13;;
31786;SDS011;18356;52.380;9.820;2022-11-15T14:37:40;6.13;;;3.15;;
31786;SDS011;18356;52.380;9.820;2022-11-15T14:40:06;6.53;;;3.15;;
31786;SDS011;18356;52.380;9.820;2022-11-15T14:42:34;6.00;;;3.10;;
31786;SDS011;18356;52.380;9.820;2022-11-15T14:45:00;8.32;;;3.22;;
31786;SDS011;18356;52.380;9.820;2022-11-15T14:47:26;9.02;;;3.58;;
31786;SDS011;18356;52.380;9.820;2022-11-15T14:49:52;5.72;;;3.05;;
31786;SDS011;18356;52.380;9.820;2022-11-15T14:52:29;9.65;;;3.63;;
31786;SDS011;18356;52.380;9.820;2022-11-15T14:54:58;10.65;;;3.10;;
31786;SDS011;18356;52.380;9.820;2022-11-15T14:57:26;7.45;;;3.20;;
31786;SDS011;18356;52.380;9.820;2022-11-15T14:59:52;5.43;;;2.97;;
31786;SDS011;18356;52.380;9.820;2022-11-15T15:02:22;6.00;;;3.22;;
31786;SDS011;18356;52.380;9.820;2022-11-15T15:04:48;7.65;;;3.50;;
31786;SDS011;18356;52.380;9.820;2022-11-15T15:07:15;7.07;;;3.60;;
31786;SDS011;18356;52.380;9.820;2022-11-15T15:09:41;7.38;;;3.13;;
31786;SDS011;18356;52.380;9.820;2022-11-15T15:12:13;7.18;;;3.20;;
31786;SDS011;18356;52.380;9.820;2022-11-15T15:14:40;7.53;;;3.65;;
31786;SDS011;18356;52.380;9.820;2022-11-15T15:17:06;12.30;;;3.30;;
31786;SDS011;18356;52.380;9.820;2022-11-15T15:19:32;10.13;;;3.45;;
31786;SDS011;18356;52.380;9.820;2022-11-15T15:21:58;12.23;;;4.00;;
31786;SDS011;18356;52.380;9.820;2022-11-15T15:24:24;10.05;;;3.28;;
31786;SDS011;18356;52.380;9.820;2022-11-15T15:26:50;12.38;;;3.25;;
31786;SDS011;18356;52.380;9.820;2022-11-15T15:29:16;7.85;;;2.80;;
31786;SDS011;18356;52.380;9.820;2022-11-15T15:31:42;7.05;;;4.35;;
31786;SDS011;18356;52.380;9.820;2022-11-15T15:34:08;6.32;;;3.22;;
31786;SDS011;18356;52.380;9.820;2022-11-15T15:36:34;6.50;;;3.35;;
31786;SDS011;18356;52.380;9.820;2022-11-15T15:39:00;5.70;;;3.10;;
31786;SDS011;18356;52.380;9.820;2022-11-15T15:41:26;6.55;;;3.10;;
31786;SDS011;18356;52.380;9.820;2022-11-15T15:43:52;14.10;;;3.92;;
31786;SDS011;18356;52.380;9.820;2022-11-15T15:46:18;6.78;;;3.40;;
31786;SDS011;18356;52.380;9.820;2022-11-15T15:48:45;9.45;;;3.60;;
31786;SDS011;18356;52.380;9.820;2022-11-15T15:51:12;7.93;;;3.67;;
31786;SDS011;18356;52.380;9.820;2022-11-15T15:53:38;7.40;;;3.90;;
31786;SDS011;18356;52.380;9.820;2022-11-15T15:56:04;10.70;;;4.32;;
31786;SDS011;18356;52.380;9.820;2022-11-15T15:58:32;12.30;;;4.40;;
31786;SDS011;18356;52.380;9.820;2022-11-15T16:00:58;17.67;;;5.10;;
31786;SDS011;18356;52.380;9.820;2022-11-15T16:03:24;11.00;;;4.47;;
31786;SDS011;18356;52.380;9.820;2022-11-15T16:05:52;11.52;;;4.88;;
31786;SDS011;18356;52.380;9.820;2022-11-15T16:08:19;11.30;;;4.85;;
31786;SDS011;18356;52.380;9.820;2022-11-15T16:10:46;9.15;;;4.68;;
31786;SDS011;18356;52.380;9.820;2022-11-15T16:13:12;11.20;;;5.35;;
31786;SDS011;18356;52.380;9.820;2022-11-15T16:15:38;9.93;;;5.03;;
31786;SDS011;18356;52.380;9.820;2022-11-15T16:18:04;16.60;;;6.03;;
31786;SDS011;18356;52.380;9.820;2022-11-15T16:22:58;14.55;;;6.68;;
31786;SDS011;18356;52.380;9.820;2022-11-15T16:25:25;15.68;;;7.07;;
31786;SDS011;18356;52.380;9.820;2022-11-15T16:27:51;11.27;;;6.78;;
31786;SDS011;18356;52.380;9.820;2022-11-15T16:30:18;12.35;;;7.70;;
31786;SDS011;18356;52.380;9.820;2022-11-15T16:32:44;11.27;;;7.22;;
31786;SDS011;18356;52.380;9.820;2022-11-15T16:35:10;12.88;;;6.88;;
31786;SDS011;18356;52.380;9.820;2022-11-15T16:37:39;13.57;;;7.03;;
31786;SDS011;18356;52.380;9.820;2022-11-15T16:42:41;15.60;;;7.28;;